sensor_id;sensor_type;location;lat;lon;timestamp;P1;durP1;ratioP1;P2;durP2;ratioP2
10894;SDS011;5500;49.886;8.074;2022-09-09T00:01:35;3.63;;;1.87;;
10894;SDS011;5500;49.886;8.074;2022-09-09T00:04:09;4.33;;;1.60;;
10894;SDS011;5500;49.886;8.074;2022-09-09T00:06:43;4.23;;;1.20;;
10894;SDS011;5500;49.886;8.074;2022-09-09T00:09:12;1.80;;;1.20;;
10894;SDS011;5500;49.886;8.074;2022-09-09T00:11:43;2.20;;;1.37;;
10894;SDS011;5500;49.886;8.074;2022-09-09T00:14:16;2.97;;;1.40;;
10894;SDS011;5500;49.886;8.074;2022-09-09T00:16:51;3.90;;;1.53;;
10894;SDS011;5500;49.886;8.074;2022-09-09T00:19:22;5.37;;;1.23;;
10894;SDS011;5500;49.886;8.074;2022-09-09T00:21:55;1.90;;;1.23;;
10894;SDS011;5500;49.886;8.074;2022-09-09T00:24:29;2.00;;;0.90;;
10894;SDS011;5500;49.886;8.074;2022-09-09T00:27:03;3.40;;;1.17;;
10894;SDS011;5500;49.886;8.074;2022-09-09T00:29:35;2.10;;;1.20;;
10894;SDS011;5500;49.886;8.074;2022-09-09T00:32:14;2.27;;;1.10;;
10894;SDS011;5500;49.886;8.074;2022-09-09T00:34:48;3.63;;;1.43;;
10894;SDS011;5500;49.886;8.074;2022-09-09T00:37:18;1.90;;;1.10;;
10894;SDS011;5500;49.886;8.074;2022-09-09T00:39:47;3.47;;;1.23;;
10894;SDS011;5500;49.886;8.074;2022-09-09T00:42:16;3.37;;;1.40;;
10894;SDS011;5500;49.886;8.074;2022-09-09T00:44:50;5.97;;;1.40;;
10894;SDS011;5500;49.886;8.074;2022-09-09T00:47:28;3.03;;;1.13;;
10894;SDS011;5500;49.886;8.074;2022-09-09T00:50:23;2.33;;;1.20;;
10894;SDS011;5500;49.886;8.074;2022-09-09T00:53:02;3.87;;;1.37;;
10894;SDS011;5500;49.886;8.074;2022-09-09T00:55:38;2.37;;;1.17;;
10894;SDS011;5500;49.886;8.074;2022-09-09T00:58:08;2.73;;;1.20;;
10894;SDS011;5500;49.886;8.074;2022-09-09T01:00:39;3.20;;;1.00;;
10894;SDS011;5500;49.886;8.074;2022-09-09T01:03:17;2.63;;;1.40;;
10894;SDS011;5500;49.886;8.074;2022-09-09T01:05:53;3.40;;;1.40;;
10894;SDS011;5500;49.886;8.074;2022-09-09T01:11:29;5.67;;;1.40;;
10894;SDS011;5500;49.886;8.074;2022-09-09T01:14:01;3.40;;;1.40;;
10894;SDS011;5500;49.886;8.074;2022-09-09T01:16:32;3.83;;;1.27;;
10894;SDS011;5500;49.886;8.074;2022-09-09T01:19:01;3.90;;;1.20;;
10894;SDS011;5500;49.886;8.074;2022-09-09T01:21:32;2.23;;;1.00;;
10894;SDS011;5500;49.886;8.074;2022-09-09T01:24:07;5.07;;;1.37;;
10894;SDS011;5500;49.886;8.074;2022-09-09T01:26:43;2.57;;;0.90;;
10894;SDS011;5500;49.886;8.074;2022-09-09T01:29:11;3.67;;;1.20;;
10894;SDS011;5500;49.886;8.074;2022-09-09T01:31:41;5.93;;;1.27;;
10894;SDS011;5500;49.886;8.074;2022-09-09T01:34:11;4.87;;;1.13;;
10894;SDS011;5500;49.886;8.074;2022-09-09T01:36:40;3.23;;;1.20;;
10894;SDS011;5500;49.886;8.074;2022-09-09T01:39:11;2.47;;;1.00;;
10894;SDS011;5500;49.886;8.074;2022-09-09T01:41:39;2.60;;;1.20;;
10894;SDS011;5500;49.886;8.074;2022-09-09T01:44:08;7.27;;;1.83;;
10894;SDS011;5500;49.886;8.074;2022-09-09T01:46:37;5.50;;;1.10;;
10894;SDS011;5500;49.886;8.074;2022-09-09T01:49:05;5.40;;;1.47;;
10894;SDS011;5500;49.886;8.074;2022-09-09T01:51:34;4.83;;;1.50;;
10894;SDS011;5500;49.886;8.074;2022-09-09T01:54:02;2.90;;;1.50;;
10894;SDS011;5500;49.886;8.074;2022-09-09T01:56:34;3.00;;;1.30;;
10894;SDS011;5500;49.886;8.074;2022-09-09T01:59:15;3.30;;;1.40;;
10894;SDS011;5500;49.886;8.074;2022-09-09T02:01:56;6.77;;;1.70;;
10894;SDS011;5500;49.886;8.074;2022-09-09T02:04:36;3.00;;;1.30;;
10894;SDS011;5500;49.886;8.074;2022-09-09T02:07:06;4.27;;;1.37;;
10894;SDS011;5500;49.886;8.074;2022-09-09T02:09:39;4.70;;;1.47;;
10894;SDS011;5500;49.886;8.074;2022-09-09T02:12:10;2.17;;;1.10;;
10894;SDS011;5500;49.886;8.074;2022-09-09T02:14:41;4.53;;;1.23;;
10894;SDS011;5500;49.886;8.074;2022-09-09T02:17:09;3.60;;;1.20;;
10894;SDS011;5500;49.886;8.074;2022-09-09T02:19:39;1.83;;;1.10;;
10894;SDS011;5500;49.886;8.074;2022-09-09T02:22:12;6.27;;;1.20;;
10894;SDS011;5500;49.886;8.074;2022-09-09T02:24:39;2.97;;;1.30;;
10894;SDS011;5500;49.886;8.074;2022-09-09T02:27:08;3.20;;;1.10;;
10894;SDS011;5500;49.886;8.074;2022-09-09T02:29:36;3.47;;;1.30;;
10894;SDS011;5500;49.886;8.074;2022-09-09T02:32:11;2.63;;;1.20;;
10894;SDS011;5500;49.886;8.074;2022-09-09T02:34:42;2.53;;;1.00;;
10894;SDS011;5500;49.886;8.074;2022-09-09T02:37:11;4.90;;;1.33;;
10894;SDS011;5500;49.886;8.074;2022-09-09T02:39:39;3.10;;;1.30;;
10894;SDS011;5500;49.886;8.074;2022-09-09T02:42:07;5.20;;;1.40;;
10894;SDS011;5500;49.886;8.074;2022-09-09T02:44:35;4.80;;;1.50;;
10894;SDS011;5500;49.886;8.074;2022-09-09T02:50:02;3.40;;;1.10;;
10894;SDS011;5500;49.886;8.074;2022-09-09T02:52:34;2.60;;;1.33;;
10894;SDS011;5500;49.886;8.074;2022-09-09T02:55:09;5.07;;;1.43;;
10894;SDS011;5500;49.886;8.074;2022-09-09T02:57:42;3.60;;;1.33;;
10894;SDS011;5500;49.886;8.074;2022-09-09T03:00:11;3.07;;;1.20;;
10894;SDS011;5500;49.886;8.074;2022-09-09T03:02:41;4.77;;;1.57;;
10894;SDS011;5500;49.886;8.074;2022-09-09T03:05:09;4.53;;;1.60;;
10894;SDS011;5500;49.886;8.074;2022-09-09T03:07:36;4.40;;;1.50;;
10894;SDS011;5500;49.886;8.074;2022-09-09T03:10:06;2.53;;;1.20;;
10894;SDS011;5500;49.886;8.074;2022-09-09T03:12:34;2.90;;;1.13;;
10894;SDS011;5500;49.886;8.074;2022-09-09T03:15:01;2.33;;;1.20;;
10894;SDS011;5500;49.886;8.074;2022-09-09T03:17:29;3.87;;;1.17;;
10894;SDS011;5500;49.886;8.074;2022-09-09T03:19:58;4.07;;;1.20;;
10894;SDS011;5500;49.886;8.074;2022-09-09T03:22:27;2.33;;;1.10;;
10894;SDS011;5500;49.886;8.074;2022-09-09T03:24:54;4.20;;;1.60;;
10894;SDS011;5500;49.886;8.074;2022-09-09T03:27:22;3.67;;;1.33;;
10894;SDS011;5500;49.886;8.074;2022-09-09T03:29:50;2.07;;;1.30;;
10894;SDS011;5500;49.886;8.074;2022-09-09T03:32:18;5.40;;;1.33;;
10894;SDS011;5500;49.886;8.074;2022-09-09T03:34:48;2.87;;;1.60;;
10894;SDS011;5500;49.886;8.074;2022-09-09T03:37:17;6.50;;;1.40;;
10894;SDS011;5500;49.886;8.074;2022-09-09T03:39:45;6.23;;;1.37;;
10894;SDS011;5500;49.886;8.074;2022-09-09T03:42:12;3.27;;;1.20;;
10894;SDS011;5500;49.886;8.074;2022-09-09T03:44:44;1.50;;;1.20;;
10894;SDS011;5500;49.886;8.074;2022-09-09T03:47:16;3.57;;;1.20;;
10894;SDS011;5500;49.886;8.074;2022-09-09T03:49:45;2.77;;;1.10;;
10894;SDS011;5500;49.886;8.074;2022-09-09T03:52:12;5.07;;;1.60;;
10894;SDS011;5500;49.886;8.074;2022-09-09T03:54:41;4.83;;;1.50;;
10894;SDS011;5500;49.886;8.074;2022-09-09T03:57:09;3.47;;;1.83;;
10894;SDS011;5500;49.886;8.074;2022-09-09T03:59:37;1.87;;;1.10;;
10894;SDS011;5500;49.886;8.074;2022-09-09T04:02:04;4.93;;;1.27;;
10894;SDS011;5500;49.886;8.074;2022-09-09T04:04:32;5.37;;;1.53;;
10894;SDS011;5500;49.886;8.074;2022-09-09T04:07:00;4.63;;;1.57;;
10894;SDS011;5500;49.886;8.074;2022-09-09T04:09:27;4.70;;;1.60;;
10894;SDS011;5500;49.886;8.074;2022-09-09T04:11:56;4.47;;;1.50;;
10894;SDS011;5500;49.886;8.074;2022-09-09T04:14:24;6.33;;;1.77;;
10894;SDS011;5500;49.886;8.074;2022-09-09T04:16:54;3.43;;;1.03;;
10894;SDS011;5500;49.886;8.074;2022-09-09T04:19:24;2.87;;;1.07;;
10894;SDS011;5500;49.886;8.074;2022-09-09T04:21:52;2.40;;;1.40;;
10894;SDS011;5500;49.886;8.074;2022-09-09T04:24:19;3.53;;;1.30;;
10894;SDS011;5500;49.886;8.074;2022-09-09T04:26:47;3.80;;;1.73;;
10894;SDS011;5500;49.886;8.074;2022-09-09T04:29:16;2.40;;;1.47;;
10894;SDS011;5500;49.886;8.074;2022-09-09T04:31:44;3.13;;;1.27;;
10894;SDS011;5500;49.886;8.074;2022-09-09T04:34:11;7.67;;;1.53;;
10894;SDS011;5500;49.886;8.074;2022-09-09T04:36:39;5.57;;;1.23;;
10894;SDS011;5500;49.886;8.074;2022-09-09T04:39:07;4.63;;;2.00;;
10894;SDS011;5500;49.886;8.074;2022-09-09T04:41:34;4.07;;;1.30;;
10894;SDS011;5500;49.886;8.074;2022-09-09T04:44:02;3.50;;;1.30;;
10894;SDS011;5500;49.886;8.074;2022-09-09T04:46:31;3.53;;;1.30;;
10894;SDS011;5500;49.886;8.074;2022-09-09T04:49:00;4.90;;;1.00;;
10894;SDS011;5500;49.886;8.074;2022-09-09T04:51:27;6.07;;;1.63;;
10894;SDS011;5500;49.886;8.074;2022-09-09T04:53:57;4.07;;;1.40;;
10894;SDS011;5500;49.886;8.074;2022-09-09T04:56:24;7.70;;;1.50;;
10894;SDS011;5500;49.886;8.074;2022-09-09T04:58:54;6.07;;;1.40;;
10894;SDS011;5500;49.886;8.074;2022-09-09T05:01:22;3.33;;;1.50;;
10894;SDS011;5500;49.886;8.074;2022-09-09T05:03:52;6.30;;;1.70;;
10894;SDS011;5500;49.886;8.074;2022-09-09T05:06:20;5.00;;;1.40;;
10894;SDS011;5500;49.886;8.074;2022-09-09T05:08:48;6.20;;;1.67;;
10894;SDS011;5500;49.886;8.074;2022-09-09T05:11:16;2.47;;;1.30;;
10894;SDS011;5500;49.886;8.074;2022-09-09T05:13:45;6.07;;;1.70;;
10894;SDS011;5500;49.886;8.074;2022-09-09T05:16:13;1.53;;;1.10;;
10894;SDS011;5500;49.886;8.074;2022-09-09T05:18:41;4.30;;;1.40;;
10894;SDS011;5500;49.886;8.074;2022-09-09T05:21:11;5.23;;;1.50;;
10894;SDS011;5500;49.886;8.074;2022-09-09T05:23:39;3.37;;;1.20;;
10894;SDS011;5500;49.886;8.074;2022-09-09T05:26:09;5.17;;;1.40;;
10894;SDS011;5500;49.886;8.074;2022-09-09T05:28:43;4.43;;;1.43;;
10894;SDS011;5500;49.886;8.074;2022-09-09T05:31:11;2.77;;;1.00;;
10894;SDS011;5500;49.886;8.074;2022-09-09T05:33:40;4.30;;;1.60;;
10894;SDS011;5500;49.886;8.074;2022-09-09T05:36:11;5.00;;;1.30;;
10894;SDS011;5500;49.886;8.074;2022-09-09T05:38:40;4.30;;;1.77;;
10894;SDS011;5500;49.886;8.074;2022-09-09T05:41:08;3.80;;;1.40;;
10894;SDS011;5500;49.886;8.074;2022-09-09T05:43:37;3.10;;;1.20;;
10894;SDS011;5500;49.886;8.074;2022-09-09T05:46:06;4.57;;;1.63;;
10894;SDS011;5500;49.886;8.074;2022-09-09T05:48:34;2.80;;;1.30;;
10894;SDS011;5500;49.886;8.074;2022-09-09T05:51:04;6.60;;;1.63;;
10894;SDS011;5500;49.886;8.074;2022-09-09T05:53:34;4.93;;;1.73;;
10894;SDS011;5500;49.886;8.074;2022-09-09T05:56:02;5.70;;;1.87;;
10894;SDS011;5500;49.886;8.074;2022-09-09T05:58:31;5.67;;;1.70;;
10894;SDS011;5500;49.886;8.074;2022-09-09T06:01:02;5.53;;;1.60;;
10894;SDS011;5500;49.886;8.074;2022-09-09T06:03:31;3.40;;;1.33;;
10894;SDS011;5500;49.886;8.074;2022-09-09T06:05:59;4.50;;;1.40;;
10894;SDS011;5500;49.886;8.074;2022-09-09T06:08:27;2.90;;;1.53;;
10894;SDS011;5500;49.886;8.074;2022-09-09T06:11:01;6.83;;;1.83;;
10894;SDS011;5500;49.886;8.074;2022-09-09T06:13:30;6.03;;;1.43;;
10894;SDS011;5500;49.886;8.074;2022-09-09T06:15:58;2.57;;;1.10;;
10894;SDS011;5500;49.886;8.074;2022-09-09T06:18:26;3.60;;;1.33;;
10894;SDS011;5500;49.886;8.074;2022-09-09T06:20:55;3.97;;;1.40;;
10894;SDS011;5500;49.886;8.074;2022-09-09T06:23:23;5.03;;;1.70;;
10894;SDS011;5500;49.886;8.074;2022-09-09T06:25:51;5.07;;;1.70;;
10894;SDS011;5500;49.886;8.074;2022-09-09T06:28:20;7.33;;;1.87;;
10894;SDS011;5500;49.886;8.074;2022-09-09T06:30:47;8.53;;;2.53;;
10894;SDS011;5500;49.886;8.074;2022-09-09T06:33:15;3.03;;;1.27;;
10894;SDS011;5500;49.886;8.074;2022-09-09T06:35:42;4.77;;;1.70;;
10894;SDS011;5500;49.886;8.074;2022-09-09T06:38:19;4.30;;;1.60;;
10894;SDS011;5500;49.886;8.074;2022-09-09T06:40:50;5.77;;;1.83;;
10894;SDS011;5500;49.886;8.074;2022-09-09T06:43:20;6.63;;;1.40;;
10894;SDS011;5500;49.886;8.074;2022-09-09T06:45:54;5.17;;;1.70;;
10894;SDS011;5500;49.886;8.074;2022-09-09T06:48:22;2.77;;;1.47;;
10894;SDS011;5500;49.886;8.074;2022-09-09T06:50:53;4.47;;;1.63;;
10894;SDS011;5500;49.886;8.074;2022-09-09T06:53:27;2.87;;;1.63;;
10894;SDS011;5500;49.886;8.074;2022-09-09T06:55:56;3.83;;;1.50;;
10894;SDS011;5500;49.886;8.074;2022-09-09T06:58:25;3.70;;;1.90;;
10894;SDS011;5500;49.886;8.074;2022-09-09T07:00:52;4.73;;;2.07;;
10894;SDS011;5500;49.886;8.074;2022-09-09T07:03:20;4.07;;;1.73;;
10894;SDS011;5500;49.886;8.074;2022-09-09T07:05:53;9.07;;;2.57;;
10894;SDS011;5500;49.886;8.074;2022-09-09T07:08:22;5.73;;;2.40;;
10894;SDS011;5500;49.886;8.074;2022-09-09T07:10:50;5.37;;;2.13;;
10894;SDS011;5500;49.886;8.074;2022-09-09T07:13:20;7.20;;;2.23;;
10894;SDS011;5500;49.886;8.074;2022-09-09T07:15:52;4.13;;;1.97;;
10894;SDS011;5500;49.886;8.074;2022-09-09T07:18:20;6.50;;;2.13;;
10894;SDS011;5500;49.886;8.074;2022-09-09T07:20:52;10.90;;;2.47;;
10894;SDS011;5500;49.886;8.074;2022-09-09T07:23:21;4.50;;;2.10;;
10894;SDS011;5500;49.886;8.074;2022-09-09T07:25:48;8.57;;;2.60;;
10894;SDS011;5500;49.886;8.074;2022-09-09T07:28:18;6.53;;;2.57;;
10894;SDS011;5500;49.886;8.074;2022-09-09T07:30:53;5.63;;;2.00;;
10894;SDS011;5500;49.886;8.074;2022-09-09T07:33:22;3.63;;;2.27;;
10894;SDS011;5500;49.886;8.074;2022-09-09T07:35:50;5.57;;;2.20;;
10894;SDS011;5500;49.886;8.074;2022-09-09T07:38:17;4.43;;;2.00;;
10894;SDS011;5500;49.886;8.074;2022-09-09T07:40:45;4.43;;;2.13;;
10894;SDS011;5500;49.886;8.074;2022-09-09T07:43:13;5.53;;;2.20;;
10894;SDS011;5500;49.886;8.074;2022-09-09T07:45:44;5.57;;;1.93;;
10894;SDS011;5500;49.886;8.074;2022-09-09T07:48:14;5.83;;;2.20;;
10894;SDS011;5500;49.886;8.074;2022-09-09T07:50:42;4.73;;;1.87;;
10894;SDS011;5500;49.886;8.074;2022-09-09T07:53:09;6.27;;;1.80;;
10894;SDS011;5500;49.886;8.074;2022-09-09T07:55:37;6.63;;;2.10;;
10894;SDS011;5500;49.886;8.074;2022-09-09T07:58:04;5.00;;;2.00;;
10894;SDS011;5500;49.886;8.074;2022-09-09T08:00:32;4.33;;;1.97;;
10894;SDS011;5500;49.886;8.074;2022-09-09T08:03:00;7.20;;;2.17;;
10894;SDS011;5500;49.886;8.074;2022-09-09T08:05:29;8.33;;;2.73;;
10894;SDS011;5500;49.886;8.074;2022-09-09T08:07:57;7.00;;;2.27;;
10894;SDS011;5500;49.886;8.074;2022-09-09T08:10:24;6.07;;;2.10;;
10894;SDS011;5500;49.886;8.074;2022-09-09T08:12:52;4.17;;;1.93;;
10894;SDS011;5500;49.886;8.074;2022-09-09T08:15:40;4.83;;;1.90;;
10894;SDS011;5500;49.886;8.074;2022-09-09T08:18:09;5.90;;;1.97;;
10894;SDS011;5500;49.886;8.074;2022-09-09T08:20:38;6.03;;;2.07;;
10894;SDS011;5500;49.886;8.074;2022-09-09T08:23:05;6.27;;;1.93;;
10894;SDS011;5500;49.886;8.074;2022-09-09T08:25:33;4.93;;;2.10;;
10894;SDS011;5500;49.886;8.074;2022-09-09T08:28:01;8.70;;;2.07;;
10894;SDS011;5500;49.886;8.074;2022-09-09T08:30:29;8.50;;;2.10;;
10894;SDS011;5500;49.886;8.074;2022-09-09T08:32:57;7.27;;;1.87;;
10894;SDS011;5500;49.886;8.074;2022-09-09T08:35:26;4.10;;;1.57;;
10894;SDS011;5500;49.886;8.074;2022-09-09T08:37:55;3.67;;;1.80;;
10894;SDS011;5500;49.886;8.074;2022-09-09T08:40:25;4.43;;;1.80;;
10894;SDS011;5500;49.886;8.074;2022-09-09T08:42:55;5.03;;;1.50;;
10894;SDS011;5500;49.886;8.074;2022-09-09T08:45:26;7.97;;;2.30;;
10894;SDS011;5500;49.886;8.074;2022-09-09T08:48:03;2.73;;;1.47;;
10894;SDS011;5500;49.886;8.074;2022-09-09T08:50:37;5.27;;;1.50;;
10894;SDS011;5500;49.886;8.074;2022-09-09T08:53:11;3.43;;;1.70;;
10894;SDS011;5500;49.886;8.074;2022-09-09T08:55:44;3.20;;;1.50;;
10894;SDS011;5500;49.886;8.074;2022-09-09T08:58:15;5.40;;;1.90;;
10894;SDS011;5500;49.886;8.074;2022-09-09T09:00:47;5.97;;;1.70;;
10894;SDS011;5500;49.886;8.074;2022-09-09T09:03:23;4.33;;;1.73;;
10894;SDS011;5500;49.886;8.074;2022-09-09T09:05:58;4.33;;;1.83;;
10894;SDS011;5500;49.886;8.074;2022-09-09T09:08:30;4.73;;;1.70;;
10894;SDS011;5500;49.886;8.074;2022-09-09T09:11:04;4.07;;;1.67;;
10894;SDS011;5500;49.886;8.074;2022-09-09T09:13:34;6.07;;;1.93;;
10894;SDS011;5500;49.886;8.074;2022-09-09T09:16:14;4.90;;;1.53;;
10894;SDS011;5500;49.886;8.074;2022-09-09T09:18:47;5.20;;;1.53;;
10894;SDS011;5500;49.886;8.074;2022-09-09T09:21:15;4.80;;;1.80;;
10894;SDS011;5500;49.886;8.074;2022-09-09T09:23:48;4.47;;;1.63;;
10894;SDS011;5500;49.886;8.074;2022-09-09T09:26:19;4.53;;;1.40;;
10894;SDS011;5500;49.886;8.074;2022-09-09T09:28:48;3.10;;;1.20;;
10894;SDS011;5500;49.886;8.074;2022-09-09T09:31:16;2.77;;;1.20;;
10894;SDS011;5500;49.886;8.074;2022-09-09T09:33:46;3.77;;;1.57;;
10894;SDS011;5500;49.886;8.074;2022-09-09T09:36:16;6.07;;;2.13;;
10894;SDS011;5500;49.886;8.074;2022-09-09T09:38:55;2.50;;;1.47;;
10894;SDS011;5500;49.886;8.074;2022-09-09T09:41:43;4.83;;;1.20;;
10894;SDS011;5500;49.886;8.074;2022-09-09T09:44:21;4.93;;;1.50;;
10894;SDS011;5500;49.886;8.074;2022-09-09T09:46:50;3.57;;;1.40;;
10894;SDS011;5500;49.886;8.074;2022-09-09T09:49:18;6.00;;;1.70;;
10894;SDS011;5500;49.886;8.074;2022-09-09T09:51:46;6.93;;;1.53;;
10894;SDS011;5500;49.886;8.074;2022-09-09T09:54:17;5.70;;;1.83;;
10894;SDS011;5500;49.886;8.074;2022-09-09T09:56:55;4.47;;;1.50;;
10894;SDS011;5500;49.886;8.074;2022-09-09T09:59:24;6.43;;;1.57;;
10894;SDS011;5500;49.886;8.074;2022-09-09T10:02:18;9.00;;;1.90;;
10894;SDS011;5500;49.886;8.074;2022-09-09T10:04:47;3.50;;;1.27;;
10894;SDS011;5500;49.886;8.074;2022-09-09T10:07:17;6.07;;;1.33;;
10894;SDS011;5500;49.886;8.074;2022-09-09T10:09:48;5.43;;;1.97;;
10894;SDS011;5500;49.886;8.074;2022-09-09T10:12:21;3.87;;;1.40;;
10894;SDS011;5500;49.886;8.074;2022-09-09T10:14:56;3.43;;;1.17;;
10894;SDS011;5500;49.886;8.074;2022-09-09T10:17:30;4.90;;;1.50;;
10894;SDS011;5500;49.886;8.074;2022-09-09T10:20:10;3.97;;;1.67;;
10894;SDS011;5500;49.886;8.074;2022-09-09T10:22:44;5.30;;;1.30;;
10894;SDS011;5500;49.886;8.074;2022-09-09T10:25:21;2.43;;;1.10;;
10894;SDS011;5500;49.886;8.074;2022-09-09T10:28:00;4.50;;;1.43;;
10894;SDS011;5500;49.886;8.074;2022-09-09T10:30:40;3.53;;;1.37;;
10894;SDS011;5500;49.886;8.074;2022-09-09T10:33:16;3.47;;;1.50;;
10894;SDS011;5500;49.886;8.074;2022-09-09T10:35:51;4.33;;;1.77;;
10894;SDS011;5500;49.886;8.074;2022-09-09T10:38:24;4.83;;;1.13;;
10894;SDS011;5500;49.886;8.074;2022-09-09T10:41:13;6.40;;;1.27;;
10894;SDS011;5500;49.886;8.074;2022-09-09T10:43:57;3.73;;;1.27;;
10894;SDS011;5500;49.886;8.074;2022-09-09T10:46:36;5.30;;;1.83;;
10894;SDS011;5500;49.886;8.074;2022-09-09T10:49:14;4.70;;;1.67;;
10894;SDS011;5500;49.886;8.074;2022-09-09T10:51:51;3.17;;;1.17;;
10894;SDS011;5500;49.886;8.074;2022-09-09T10:54:24;4.87;;;1.70;;
10894;SDS011;5500;49.886;8.074;2022-09-09T10:57:00;5.93;;;1.57;;
10894;SDS011;5500;49.886;8.074;2022-09-09T10:59:31;2.63;;;1.40;;
10894;SDS011;5500;49.886;8.074;2022-09-09T11:02:02;4.77;;;1.60;;
10894;SDS011;5500;49.886;8.074;2022-09-09T11:04:33;5.90;;;1.50;;
10894;SDS011;5500;49.886;8.074;2022-09-09T11:07:05;2.87;;;1.40;;
10894;SDS011;5500;49.886;8.074;2022-09-09T11:09:38;4.13;;;1.37;;
10894;SDS011;5500;49.886;8.074;2022-09-09T11:12:10;4.63;;;1.70;;
10894;SDS011;5500;49.886;8.074;2022-09-09T11:14:41;6.10;;;1.50;;
10894;SDS011;5500;49.886;8.074;2022-09-09T11:17:12;3.00;;;1.43;;
10894;SDS011;5500;49.886;8.074;2022-09-09T11:19:43;4.37;;;1.60;;
10894;SDS011;5500;49.886;8.074;2022-09-09T11:22:15;4.80;;;1.77;;
10894;SDS011;5500;49.886;8.074;2022-09-09T11:24:47;4.80;;;1.50;;
10894;SDS011;5500;49.886;8.074;2022-09-09T11:27:19;4.30;;;1.67;;
10894;SDS011;5500;49.886;8.074;2022-09-09T11:30:00;3.87;;;1.10;;
10894;SDS011;5500;49.886;8.074;2022-09-09T11:35:33;4.70;;;1.13;;
10894;SDS011;5500;49.886;8.074;2022-09-09T11:38:13;3.33;;;1.30;;
10894;SDS011;5500;49.886;8.074;2022-09-09T11:40:44;2.67;;;1.30;;
10894;SDS011;5500;49.886;8.074;2022-09-09T11:43:14;2.80;;;1.17;;
10894;SDS011;5500;49.886;8.074;2022-09-09T11:45:50;3.87;;;1.47;;
10894;SDS011;5500;49.886;8.074;2022-09-09T11:48:26;3.93;;;1.10;;
10894;SDS011;5500;49.886;8.074;2022-09-09T11:50:57;2.50;;;1.10;;
10894;SDS011;5500;49.886;8.074;2022-09-09T11:53:26;4.77;;;1.70;;
10894;SDS011;5500;49.886;8.074;2022-09-09T11:56:00;4.13;;;1.37;;
10894;SDS011;5500;49.886;8.074;2022-09-09T11:58:33;5.07;;;1.33;;
10894;SDS011;5500;49.886;8.074;2022-09-09T12:01:13;4.63;;;1.33;;
10894;SDS011;5500;49.886;8.074;2022-09-09T12:03:43;3.90;;;1.30;;
10894;SDS011;5500;49.886;8.074;2022-09-09T12:06:14;4.03;;;1.43;;
10894;SDS011;5500;49.886;8.074;2022-09-09T12:08:44;5.80;;;1.20;;
10894;SDS011;5500;49.886;8.074;2022-09-09T12:11:23;4.00;;;1.43;;
10894;SDS011;5500;49.886;8.074;2022-09-09T12:13:54;4.97;;;1.30;;
10894;SDS011;5500;49.886;8.074;2022-09-09T12:16:27;4.03;;;1.77;;
10894;SDS011;5500;49.886;8.074;2022-09-09T12:19:03;3.70;;;1.53;;
10894;SDS011;5500;49.886;8.074;2022-09-09T12:21:34;3.60;;;1.10;;
10894;SDS011;5500;49.886;8.074;2022-09-09T12:24:05;2.93;;;1.00;;
10894;SDS011;5500;49.886;8.074;2022-09-09T12:26:36;2.27;;;1.10;;
10894;SDS011;5500;49.886;8.074;2022-09-09T12:29:11;2.93;;;1.03;;
10894;SDS011;5500;49.886;8.074;2022-09-09T12:31:42;7.17;;;1.27;;
10894;SDS011;5500;49.886;8.074;2022-09-09T12:34:14;2.27;;;0.90;;
10894;SDS011;5500;49.886;8.074;2022-09-09T12:36:42;5.13;;;1.20;;
10894;SDS011;5500;49.886;8.074;2022-09-09T12:39:19;2.47;;;0.83;;
10894;SDS011;5500;49.886;8.074;2022-09-09T12:41:52;1.87;;;0.90;;
10894;SDS011;5500;49.886;8.074;2022-09-09T12:44:25;2.53;;;1.03;;
10894;SDS011;5500;49.886;8.074;2022-09-09T12:46:54;2.60;;;1.30;;
10894;SDS011;5500;49.886;8.074;2022-09-09T12:49:25;3.93;;;0.90;;
10894;SDS011;5500;49.886;8.074;2022-09-09T12:51:55;2.93;;;0.80;;
10894;SDS011;5500;49.886;8.074;2022-09-09T12:54:24;3.43;;;1.10;;
10894;SDS011;5500;49.886;8.074;2022-09-09T12:56:52;0.60;;;0.50;;
10894;SDS011;5500;49.886;8.074;2022-09-09T12:59:25;2.77;;;0.90;;
10894;SDS011;5500;49.886;8.074;2022-09-09T13:01:56;1.10;;;0.70;;
10894;SDS011;5500;49.886;8.074;2022-09-09T13:04:25;0.73;;;0.57;;
10894;SDS011;5500;49.886;8.074;2022-09-09T13:06:53;0.63;;;0.57;;
10894;SDS011;5500;49.886;8.074;2022-09-09T13:09:21;2.13;;;0.97;;
10894;SDS011;5500;49.886;8.074;2022-09-09T13:11:49;1.30;;;0.57;;
10894;SDS011;5500;49.886;8.074;2022-09-09T13:14:19;2.40;;;0.70;;
10894;SDS011;5500;49.886;8.074;2022-09-09T13:16:55;0.63;;;0.63;;
10894;SDS011;5500;49.886;8.074;2022-09-09T13:19:24;1.97;;;0.77;;
10894;SDS011;5500;49.886;8.074;2022-09-09T13:21:54;0.80;;;0.60;;
10894;SDS011;5500;49.886;8.074;2022-09-09T13:24:24;1.57;;;0.70;;
10894;SDS011;5500;49.886;8.074;2022-09-09T13:26:55;3.07;;;0.90;;
10894;SDS011;5500;49.886;8.074;2022-09-09T13:29:24;1.50;;;0.87;;
10894;SDS011;5500;49.886;8.074;2022-09-09T13:31:51;3.90;;;0.80;;
10894;SDS011;5500;49.886;8.074;2022-09-09T13:34:30;2.33;;;0.90;;
10894;SDS011;5500;49.886;8.074;2022-09-09T13:37:00;2.07;;;1.00;;
10894;SDS011;5500;49.886;8.074;2022-09-09T13:39:29;3.63;;;1.13;;
10894;SDS011;5500;49.886;8.074;2022-09-09T13:41:57;3.87;;;1.27;;
10894;SDS011;5500;49.886;8.074;2022-09-09T13:44:25;4.47;;;1.30;;
10894;SDS011;5500;49.886;8.074;2022-09-09T13:47:01;2.93;;;1.40;;
10894;SDS011;5500;49.886;8.074;2022-09-09T13:49:37;2.27;;;1.00;;
10894;SDS011;5500;49.886;8.074;2022-09-09T13:52:05;2.93;;;1.20;;
10894;SDS011;5500;49.886;8.074;2022-09-09T13:54:37;2.73;;;1.30;;
10894;SDS011;5500;49.886;8.074;2022-09-09T13:57:05;3.90;;;1.23;;
10894;SDS011;5500;49.886;8.074;2022-09-09T13:59:33;3.00;;;1.40;;
10894;SDS011;5500;49.886;8.074;2022-09-09T14:02:20;4.23;;;1.10;;
10894;SDS011;5500;49.886;8.074;2022-09-09T14:04:50;3.67;;;1.10;;
10894;SDS011;5500;49.886;8.074;2022-09-09T14:07:21;4.73;;;1.30;;
10894;SDS011;5500;49.886;8.074;2022-09-09T14:09:49;2.03;;;1.07;;
10894;SDS011;5500;49.886;8.074;2022-09-09T14:12:17;4.63;;;1.30;;
10894;SDS011;5500;49.886;8.074;2022-09-09T14:14:46;1.80;;;1.20;;
10894;SDS011;5500;49.886;8.074;2022-09-09T14:17:15;4.73;;;1.60;;
10894;SDS011;5500;49.886;8.074;2022-09-09T14:19:43;4.90;;;1.50;;
10894;SDS011;5500;49.886;8.074;2022-09-09T14:22:12;4.93;;;1.20;;
10894;SDS011;5500;49.886;8.074;2022-09-09T14:24:40;3.00;;;1.30;;
10894;SDS011;5500;49.886;8.074;2022-09-09T14:27:07;2.30;;;1.07;;
10894;SDS011;5500;49.886;8.074;2022-09-09T14:29:35;2.33;;;0.90;;
10894;SDS011;5500;49.886;8.074;2022-09-09T14:32:03;2.73;;;1.30;;
10894;SDS011;5500;49.886;8.074;2022-09-09T14:34:37;2.77;;;1.20;;
10894;SDS011;5500;49.886;8.074;2022-09-09T14:37:06;2.40;;;1.23;;
10894;SDS011;5500;49.886;8.074;2022-09-09T14:39:38;4.10;;;1.23;;
10894;SDS011;5500;49.886;8.074;2022-09-09T14:42:06;5.37;;;1.43;;
10894;SDS011;5500;49.886;8.074;2022-09-09T14:44:34;3.53;;;1.50;;
10894;SDS011;5500;49.886;8.074;2022-09-09T14:47:03;4.33;;;1.30;;
10894;SDS011;5500;49.886;8.074;2022-09-09T14:49:31;2.10;;;1.07;;
10894;SDS011;5500;49.886;8.074;2022-09-09T14:51:59;3.20;;;1.30;;
10894;SDS011;5500;49.886;8.074;2022-09-09T14:54:26;2.23;;;1.03;;
10894;SDS011;5500;49.886;8.074;2022-09-09T14:56:56;3.60;;;1.03;;
10894;SDS011;5500;49.886;8.074;2022-09-09T14:59:24;4.10;;;1.10;;
10894;SDS011;5500;49.886;8.074;2022-09-09T15:01:51;4.37;;;1.10;;
10894;SDS011;5500;49.886;8.074;2022-09-09T15:04:19;3.30;;;1.03;;
10894;SDS011;5500;49.886;8.074;2022-09-09T15:06:48;4.73;;;1.10;;
10894;SDS011;5500;49.886;8.074;2022-09-09T15:09:18;1.93;;;0.80;;
10894;SDS011;5500;49.886;8.074;2022-09-09T15:11:46;3.40;;;1.43;;
10894;SDS011;5500;49.886;8.074;2022-09-09T15:14:15;3.00;;;1.20;;
10894;SDS011;5500;49.886;8.074;2022-09-09T15:16:50;1.90;;;1.03;;
10894;SDS011;5500;49.886;8.074;2022-09-09T15:19:18;3.07;;;0.90;;
10894;SDS011;5500;49.886;8.074;2022-09-09T15:21:45;3.30;;;1.27;;
10894;SDS011;5500;49.886;8.074;2022-09-09T15:24:13;3.80;;;1.33;;
10894;SDS011;5500;49.886;8.074;2022-09-09T15:26:42;1.80;;;0.80;;
10894;SDS011;5500;49.886;8.074;2022-09-09T15:29:09;2.90;;;1.17;;
10894;SDS011;5500;49.886;8.074;2022-09-09T15:31:38;1.73;;;0.77;;